createdAt,value
2023-01-27T00:02:05.137Z,10.20
2023-01-27T00:04:53.544Z,10.00
2023-01-27T00:07:45.880Z,9.23
2023-01-27T00:10:35.707Z,10.47
2023-01-27T00:13:28.813Z,9.83
2023-01-27T00:16:17.363Z,11.60
2023-01-27T00:19:06.535Z,10.33
2023-01-27T00:22:20.659Z,10.10
2023-01-27T00:25:09.928Z,9.53
2023-01-27T00:27:59.726Z,10.57
2023-01-27T00:30:48.242Z,10.30
2023-01-27T00:33:35.765Z,10.30
2023-01-27T00:36:24.446Z,10.83
2023-01-27T00:39:14.047Z,10.97
2023-01-27T00:42:02.570Z,10.20
2023-01-27T00:45:09.939Z,10.13
2023-01-27T00:48:12.474Z,9.63
2023-01-27T00:51:01.012Z,9.87
2023-01-27T00:53:50.050Z,10.80
2023-01-27T00:56:39.096Z,9.67
2023-01-27T00:59:27.555Z,10.47
2023-01-27T01:02:17.314Z,10.13
2023-01-27T01:05:06.207Z,9.40
2023-01-27T01:07:54.692Z,9.47
2023-01-27T01:10:43.292Z,8.97
2023-01-27T01:13:31.747Z,9.90
2023-01-27T01:16:21.907Z,9.47
2023-01-27T01:19:11.793Z,10.13
2023-01-27T01:22:00.224Z,11.37
2023-01-27T01:24:48.698Z,10.60
2023-01-27T01:27:37.145Z,11.57
2023-01-27T01:30:26.422Z,11.57
2023-01-27T01:33:15.207Z,9.97
2023-01-27T01:36:10.305Z,10.30
2023-01-27T01:38:59.103Z,10.30
2023-01-27T01:41:47.510Z,10.17
2023-01-27T01:44:37.067Z,10.37
2023-01-27T01:47:25.521Z,10.13
2023-01-27T01:50:14.229Z,10.37
2023-01-27T01:53:06.623Z,10.30
2023-01-27T01:55:55.258Z,10.43
2023-01-27T01:58:45.462Z,9.53
2023-01-27T02:01:34.350Z,9.60
2023-01-27T02:04:27.819Z,9.50
2023-01-27T02:07:22.054Z,10.87
2023-01-27T02:10:13.009Z,10.30
2023-01-27T02:13:01.967Z,10.27
2023-01-27T02:15:53.334Z,10.33
2023-01-27T02:18:42.867Z,10.03
2023-01-27T02:21:31.811Z,10.23
2023-01-27T02:24:21.273Z,10.10
2023-01-27T02:27:11.192Z,10.60
2023-01-27T02:29:59.716Z,10.27
2023-01-27T02:32:48.170Z,9.43
2023-01-27T02:35:40.602Z,10.03
2023-01-27T02:38:33.952Z,9.70
2023-01-27T02:41:25.966Z,10.20
2023-01-27T02:44:15.811Z,10.63
2023-01-27T02:47:04.409Z,10.10
2023-01-27T02:49:54.398Z,10.60
2023-01-27T02:52:42.838Z,10.67
2023-01-27T02:55:31.325Z,10.83
2023-01-27T02:58:19.832Z,10.20
2023-01-27T03:01:09.944Z,11.13
2023-01-27T03:03:58.465Z,10.83
2023-01-27T03:06:46.941Z,10.07
2023-01-27T03:09:49.973Z,10.50
2023-01-27T03:12:38.414Z,9.50
2023-01-27T03:15:44.481Z,9.87
2023-01-27T03:18:34.676Z,9.90
2023-01-27T03:21:23.113Z,10.17
2023-01-27T03:24:11.686Z,9.70
2023-01-27T03:27:00.136Z,9.53
2023-01-27T03:29:58.078Z,11.00
2023-01-27T03:32:47.580Z,11.23
2023-01-27T03:35:48.285Z,9.80
2023-01-27T03:38:56.463Z,10.80
2023-01-27T03:42:02.402Z,10.50
2023-01-27T03:45:08.155Z,11.00
2023-01-27T03:47:56.619Z,10.23
2023-01-27T03:50:53.226Z,10.03
2023-01-27T03:53:41.754Z,10.13
2023-01-27T03:56:30.213Z,10.07
2023-01-27T03:59:18.668Z,10.80
2023-01-27T04:02:24.720Z,10.57
2023-01-27T04:05:30.775Z,10.17
2023-01-27T04:08:20.639Z,9.60
2023-01-27T04:11:26.350Z,11.57
2023-01-27T04:14:15.289Z,11.27
2023-01-27T04:17:05.736Z,11.73
2023-01-27T04:19:54.267Z,12.07
2023-01-27T04:22:42.729Z,12.17
2023-01-27T04:25:32.571Z,10.93
2023-01-27T04:28:37.295Z,11.17
2023-01-27T04:31:29.596Z,10.63
2023-01-27T04:34:18.529Z,10.77
2023-01-27T04:37:08.377Z,11.43
2023-01-27T04:39:56.839Z,11.83
2023-01-27T04:42:46.704Z,12.70
2023-01-27T04:45:35.158Z,12.53
2023-01-27T04:48:23.731Z,11.77
2023-01-27T04:51:12.261Z,12.90
2023-01-27T04:54:01.073Z,12.67
2023-01-27T04:56:56.992Z,12.60
2023-01-27T04:59:46.857Z,11.97
2023-01-27T05:02:35.395Z,10.70
2023-01-27T05:05:24.014Z,11.77
2023-01-27T08:55:28.413Z,6.00
2023-01-27T08:58:16.953Z,6.80
2023-01-27T09:01:07.392Z,6.37
2023-01-27T09:03:55.935Z,6.20
2023-01-27T09:06:45.264Z,6.97
2023-01-27T09:09:34.837Z,7.53
2023-01-27T09:12:24.792Z,6.80
2023-01-27T09:15:14.153Z,7.47
2023-01-27T09:18:04.180Z,6.20
2023-01-27T09:20:53.805Z,7.33
2023-01-27T09:23:42.287Z,6.77
2023-01-27T09:26:30.726Z,8.10
2023-01-27T09:29:20.942Z,6.93
2023-01-27T09:32:12.676Z,6.17
2023-01-27T09:35:01.279Z,6.87
2023-01-27T09:37:55.083Z,6.20
2023-01-27T09:40:56.835Z,6.40
2023-01-27T09:44:05.423Z,7.53
2023-01-27T09:47:10.229Z,7.40
2023-01-27T09:50:18.183Z,7.10
2023-01-27T09:53:36.064Z,6.83
2023-01-27T09:56:33.482Z,6.80
2023-01-27T09:59:55.033Z,7.43
2023-01-27T10:03:14.188Z,6.77
2023-01-27T10:06:27.838Z,6.27
2023-01-27T10:09:42.273Z,6.17
2023-01-27T10:12:43.117Z,4.97
2023-01-27T10:15:48.954Z,4.93
2023-01-27T10:18:52.560Z,5.53
2023-01-27T10:21:50.809Z,5.97
2023-01-27T10:24:57.090Z,5.20
2023-01-27T10:27:49.353Z,5.33
2023-01-27T10:30:39.080Z,5.00
2023-01-27T10:33:47.448Z,4.93
2023-01-27T10:36:47.342Z,5.07
2023-01-27T10:39:44.234Z,5.20
2023-01-27T10:42:38.035Z,4.93
2023-01-27T10:45:32.719Z,6.20
2023-01-27T10:48:38.494Z,5.00
2023-01-27T10:51:34.495Z,5.03
2023-01-27T10:54:31.316Z,4.90
2023-01-27T10:57:25.090Z,4.43
2023-01-27T11:03:30.236Z,4.97
2023-01-27T11:06:23.524Z,4.63
2023-01-27T11:09:25.342Z,4.30
2023-01-27T11:12:17.067Z,4.30
2023-01-27T11:15:29.282Z,4.43
2023-01-27T11:18:23.792Z,5.00
2023-01-27T11:21:16.705Z,4.53
2023-01-27T11:24:21.128Z,4.10
2023-01-27T11:27:35.354Z,4.20
2023-01-27T11:30:33.420Z,4.23
2023-01-27T11:33:29.209Z,4.57
2023-01-27T11:36:17.690Z,4.03
2023-01-27T11:39:06.858Z,4.43
2023-01-27T11:41:57.607Z,4.40
2023-01-27T11:44:47.278Z,4.30
2023-01-27T11:47:39.771Z,3.60
2023-01-27T11:50:31.273Z,5.10
2023-01-27T11:53:25.440Z,4.20
2023-01-27T11:56:19.294Z,4.50
2023-01-27T11:59:14.937Z,4.83
2023-01-27T12:02:11.708Z,4.23
2023-01-27T12:05:05.714Z,4.83
2023-01-27T12:07:58.571Z,4.37
2023-01-27T12:10:47.074Z,4.03
2023-01-27T12:13:35.526Z,4.20
2023-01-27T12:16:26.832Z,4.37
2023-01-27T12:19:21.053Z,3.63
2023-01-27T12:22:15.824Z,3.73
2023-01-27T12:25:08.318Z,2.87
2023-01-27T12:28:00.169Z,3.10
2023-01-27T12:30:49.201Z,3.70
2023-01-27T12:33:40.177Z,3.67
2023-01-27T12:36:30.384Z,3.03
2023-01-27T12:39:32.546Z,3.77
2023-01-27T12:42:48.638Z,3.90
2023-01-27T12:45:38.375Z,4.10
2023-01-27T12:48:27.087Z,4.00
2023-01-27T12:51:20.306Z,4.10
2023-01-27T12:54:21.879Z,4.03
2023-01-27T12:57:17.394Z,5.77
2023-01-27T13:00:07.058Z,4.63
2023-01-27T13:03:04.998Z,8.50
2023-01-27T13:05:56.237Z,3.63
2023-01-27T13:08:48.448Z,3.57
2023-01-27T13:11:40.964Z,4.10
2023-01-27T13:14:31.572Z,4.40
2023-01-27T13:17:30.373Z,4.10
2023-01-27T13:20:22.405Z,3.90
2023-01-27T13:23:19.070Z,3.57
2023-01-27T13:26:15.335Z,3.13
2023-01-27T13:29:11.658Z,3.53
2023-01-27T13:32:05.689Z,3.43
2023-01-27T13:34:56.825Z,3.20
2023-01-27T13:37:51.421Z,3.83
2023-01-27T13:40:44.534Z,4.13
2023-01-27T13:43:41.411Z,4.00
2023-01-27T13:46:34.491Z,3.67
2023-01-27T13:49:34.304Z,3.80
2023-01-27T13:52:22.987Z,3.90
2023-01-27T13:55:14.058Z,3.50
2023-01-27T13:58:05.623Z,3.43
2023-01-27T14:01:03.536Z,3.03
2023-01-27T14:04:32.164Z,3.33
2023-01-27T14:07:29.209Z,2.70
2023-01-27T14:10:23.889Z,2.90
2023-01-27T14:13:27.729Z,3.23
2023-01-27T14:16:24.960Z,3.33
2023-01-27T14:19:29.965Z,3.20
2023-01-27T14:22:28.562Z,3.47
2023-01-27T14:25:26.585Z,3.37
2023-01-27T14:28:26.992Z,3.87
2023-01-27T14:31:20.657Z,3.00
2023-01-27T14:34:26.806Z,2.70
2023-01-27T14:37:22.960Z,3.13
2023-01-27T14:40:22.266Z,3.63
2023-01-27T14:43:21.672Z,3.60
2023-01-27T14:46:21.239Z,3.27
2023-01-27T14:49:19.156Z,3.50
2023-01-27T14:52:17.988Z,4.13
2023-01-27T14:55:23.337Z,3.87
2023-01-27T14:58:43.524Z,3.73
2023-01-27T15:01:45.377Z,2.80
2023-01-27T15:04:45.047Z,3.00
2023-01-27T15:07:46.327Z,3.17
2023-01-27T15:10:35.333Z,3.47
2023-01-27T15:13:46.267Z,2.57
2023-01-27T15:16:51.996Z,3.30
2023-01-27T15:19:53.867Z,3.27
2023-01-27T15:22:56.005Z,3.13
2023-01-27T15:25:48.096Z,3.50
2023-01-27T15:28:40.491Z,4.17
2023-01-27T15:31:29.869Z,4.70
2023-01-27T15:34:24.259Z,3.47
2023-01-27T15:37:22.339Z,5.63
2023-01-27T15:40:17.258Z,3.97
2023-01-27T15:43:06.162Z,3.17
2023-01-27T15:45:56.700Z,3.37
2023-01-27T15:48:46.410Z,3.47
2023-01-27T15:51:38.035Z,3.20
2023-01-27T15:54:31.548Z,3.30
2023-01-27T15:57:30.509Z,3.70
2023-01-27T16:00:29.663Z,3.90
2023-01-27T16:03:24.609Z,3.70
2023-01-27T16:06:16.862Z,3.83
2023-01-27T16:09:08.982Z,3.53
2023-01-27T16:12:02.841Z,3.37
2023-01-27T16:15:11.901Z,4.67
2023-01-27T16:18:24.829Z,5.93
2023-01-27T16:21:43.480Z,5.50
2023-01-27T16:24:42.493Z,7.33
2023-01-27T16:27:43.645Z,6.53
2023-01-27T16:30:36.642Z,5.43
2023-01-27T16:33:30.844Z,4.67
2023-01-27T16:36:24.948Z,4.37
2023-01-27T16:39:31.705Z,3.90
2023-01-27T16:42:29.954Z,4.13
2023-01-27T16:45:21.479Z,3.87
2023-01-27T16:48:20.502Z,4.13
2023-01-27T16:51:14.457Z,4.20
2023-01-27T16:54:04.276Z,5.57
2023-01-27T16:56:53.410Z,4.73
2023-01-27T16:59:43.341Z,4.07
2023-01-27T17:02:33.088Z,4.07
2023-01-27T17:05:21.907Z,4.50
2023-01-27T17:08:19.623Z,4.00
2023-01-27T17:11:09.903Z,3.87
2023-01-27T17:14:01.211Z,4.50
2023-01-27T17:16:51.391Z,4.67
2023-01-27T17:19:39.919Z,4.30
2023-01-27T17:22:37.715Z,4.00
2023-01-27T17:25:30.966Z,4.30
2023-01-27T17:28:22.474Z,4.57
2023-01-27T17:31:18.306Z,4.90
2023-01-27T17:34:16.354Z,3.90
2023-01-27T17:37:14.428Z,5.00
2023-01-27T17:40:04.549Z,5.00
2023-01-27T17:42:53.044Z,5.60
2023-01-27T17:45:43.157Z,6.10
2023-01-27T17:48:32.296Z,5.73
2023-01-27T17:51:25.567Z,4.90
2023-01-27T17:54:24.242Z,5.17
2023-01-27T17:57:21.326Z,5.37
2023-01-27T18:00:12.501Z,5.20
2023-01-27T18:03:03.654Z,5.20
2023-01-27T18:05:54.945Z,5.97
2023-01-27T18:08:53.340Z,5.67
2023-01-27T18:11:53.370Z,5.20
2023-01-27T18:14:41.998Z,6.40
2023-01-27T18:17:32.096Z,10.00
2023-01-27T18:20:30.652Z,7.43
2023-01-27T18:23:25.690Z,7.40
2023-01-27T18:26:22.783Z,7.37
2023-01-27T18:29:22.751Z,7.07
2023-01-27T18:32:17.932Z,6.13
2023-01-27T18:35:24.930Z,7.10
2023-01-27T18:38:23.702Z,7.50
2023-01-27T18:41:19.810Z,7.63
2023-01-27T18:44:12.032Z,7.93
2023-01-27T18:47:19.889Z,9.63
2023-01-27T18:50:16.958Z,8.87
2023-01-27T18:53:14.010Z,10.80
2023-01-27T18:56:03.041Z,8.53
2023-01-27T18:58:54.124Z,9.90
2023-01-27T19:18:50.492Z,8.93
2023-01-27T19:21:39.269Z,8.63
2023-01-27T19:24:28.129Z,8.93
2023-01-27T19:27:17.415Z,9.37
2023-01-27T19:30:21.081Z,11.07
2023-01-27T19:33:17.124Z,9.80
2023-01-27T19:36:15.775Z,8.97
2023-01-27T19:39:13.004Z,9.70
2023-01-27T19:42:01.668Z,10.73
2023-01-27T19:44:50.036Z,10.87
2023-01-27T19:47:38.551Z,14.37
2023-01-27T19:50:29.009Z,12.27
2023-01-27T19:53:20.487Z,12.93
2023-01-27T19:56:17.094Z,11.20
2023-01-27T19:59:05.582Z,9.60
2023-01-27T20:01:54.045Z,13.20
2023-01-27T20:04:42.589Z,12.33
2023-01-27T20:07:31.015Z,13.03
2023-01-27T20:10:23.708Z,11.53
2023-01-27T20:13:15.469Z,11.50
2023-01-27T20:16:03.947Z,11.37
2023-01-27T20:18:52.635Z,11.70
2023-01-27T20:21:41.142Z,11.53
2023-01-27T20:24:29.604Z,12.17
2023-01-27T20:27:19.477Z,14.03
2023-01-27T20:30:08.861Z,13.37
2023-01-27T20:32:57.626Z,16.05
2023-01-27T20:35:46.004Z,15.43
2023-01-27T20:38:34.528Z,13.30
2023-01-27T20:41:24.511Z,11.63
2023-01-27T20:44:14.361Z,12.97
2023-01-27T20:47:02.875Z,12.10
2023-01-27T20:49:51.360Z,12.00
2023-01-27T20:52:40.191Z,12.97
2023-01-27T20:55:31.199Z,13.40
2023-01-27T20:58:19.855Z,14.40
2023-01-27T21:01:11.284Z,14.23
2023-01-27T21:03:59.987Z,15.23
2023-01-27T21:06:48.485Z,13.50
2023-01-27T21:09:36.977Z,11.83
2023-01-27T21:12:27.291Z,12.73
2023-01-27T21:15:16.162Z,12.73
2023-01-27T21:18:06.461Z,12.60
2023-01-27T21:20:56.243Z,11.77
2023-01-27T21:23:44.693Z,12.17
2023-01-27T21:26:33.501Z,10.80
2023-01-27T21:29:22.303Z,9.00
2023-01-27T21:32:10.878Z,9.50
2023-01-27T21:35:00.810Z,10.00
2023-01-27T21:37:49.263Z,10.30
2023-01-27T21:40:40.174Z,10.63
2023-01-27T21:43:45.859Z,9.23
2023-01-27T21:46:34.344Z,12.33
2023-01-27T21:49:22.956Z,10.37
2023-01-27T21:52:12.738Z,10.70
2023-01-27T21:55:01.769Z,11.13
2023-01-27T21:57:51.815Z,11.53
2023-01-27T22:00:40.381Z,11.40
2023-01-27T22:03:31.768Z,12.13
2023-01-27T22:06:20.235Z,10.97
2023-01-27T22:09:10.033Z,11.33
2023-01-27T22:11:58.490Z,11.67
2023-01-27T22:14:46.951Z,11.07
2023-01-27T22:17:36.952Z,10.57
2023-01-27T22:20:25.508Z,10.23
2023-01-27T22:23:13.972Z,10.27
2023-01-27T22:26:06.937Z,10.10
2023-01-27T22:28:55.476Z,9.03
2023-01-27T22:31:44.027Z,10.73
2023-01-27T22:34:32.783Z,12.50
2023-01-27T22:37:21.273Z,9.47
2023-01-27T22:40:11.300Z,9.60
2023-01-27T22:43:01.153Z,10.17
2023-01-27T22:45:49.628Z,14.00
2023-01-27T22:48:38.070Z,13.50
2023-01-27T22:51:26.592Z,12.03
2023-01-27T22:54:15.039Z,9.77
2023-01-27T22:57:03.492Z,8.97
2023-01-27T22:59:53.279Z,9.63
2023-01-27T23:02:41.822Z,8.03
2023-01-27T23:05:30.308Z,9.70
2023-01-27T23:08:20.688Z,9.03
2023-01-27T23:11:09.221Z,8.97
2023-01-27T23:13:57.701Z,8.57
2023-01-27T23:16:47.632Z,8.67
2023-01-27T23:19:36.179Z,9.00
2023-01-27T23:22:24.580Z,9.77
2023-01-27T23:25:13.959Z,9.53
2023-01-27T23:28:02.887Z,8.47
2023-01-27T23:30:52.341Z,8.43
2023-01-27T23:33:43.608Z,9.20
2023-01-27T23:36:32.023Z,9.73
2023-01-27T23:39:20.483Z,9.97
2023-01-27T23:42:08.942Z,9.77
2023-01-27T23:44:57.397Z,9.13
2023-01-27T23:47:45.865Z,10.83
2023-01-27T23:50:35.765Z,9.73
2023-01-27T23:53:24.267Z,9.27
2023-01-27T23:56:13.788Z,9.23
2023-01-27T23:59:02.232Z,9.10
